Time;durP1;ratioP1;P1;durP2;ratioP2;P2;SDS_P1;SDS_P2;PMS_P1;PMS_P2;Temp;Humidity;BMP_temperature;BMP_pressure;BME280_temperature;BME280_humidity;BME280_pressure;Samples;Min_cycle;Max_cycle;Signal;HPM_P1;HPM_P2
2021/11/08 00:00:45;;;;;;;4.30;1.30;;;;;;;;;;5131974;27;20011;-74
2021/11/08 00:03:12;;;;;;;4.10;0.90;;;;;;;;;;5155022;27;20030;-69
2021/11/08 00:05:42;;;;;;;8.98;1.40;;;;;;;;;;5161736;27;20034;-73
2021/11/08 00:08:09;;;;;;;8.02;1.08;;;;;;;;;;5161058;27;20022;-79
2021/11/08 00:10:36;;;;;;;13.80;1.33;;;;;;;;;;5131847;27;20033;-80
2021/11/08 00:13:05;;;;;;;7.65;1.40;;;;;;;;;;5139735;27;20020;-76
2021/11/08 00:20:57;;;;;;;17.73;1.38;;;;;;;;;;5139066;27;20050;-77
2021/11/08 00:23:26;;;;;;;16.92;1.65;;;;;;;;;;5137511;27;20029;-72
2021/11/08 00:25:52;;;;;;;23.77;1.90;;;;;;;;;;5137133;27;20019;-76
2021/11/08 00:28:19;;;;;;;18.35;1.63;;;;;;;;;;5116861;27;20030;-75
2021/11/08 00:30:45;;;;;;;13.05;1.55;;;;;;;;;;5116462;28;20131;-75
2021/11/08 00:33:15;;;;;;;9.32;1.40;;;;;;;;;;5116577;28;20031;-73
2021/11/08 00:35:42;;;;;;;6.53;1.20;;;;;;;;;;5098828;28;20405;-73
2021/11/08 00:38:08;;;;;;;11.48;1.45;;;;;;;;;;5116423;28;20107;-76
2021/11/08 00:40:35;;;;;;;7.90;1.35;;;;;;;;;;5116166;28;20356;-71
2021/11/08 00:43:02;;;;;;;5.75;1.25;;;;;;;;;;5116367;28;20024;-74
2021/11/08 00:45:28;;;;;;;9.25;1.25;;;;;;;;;;5116737;28;20020;-75
2021/11/08 00:47:55;;;;;;;21.52;1.50;;;;;;;;;;5116173;28;20027;-76
2021/11/08 00:50:22;;;;;;;16.60;1.42;;;;;;;;;;5115925;28;20011;-73
2021/11/08 00:52:48;;;;;;;16.38;1.40;;;;;;;;;;5116232;28;20032;-76
2021/11/08 00:55:15;;;;;;;7.13;1.00;;;;;;;;;;5116232;28;20474;-79
2021/11/08 00:57:44;;;;;;;5.57;1.55;;;;;;;;;;5099810;27;20478;-75
2021/11/08 01:00:11;;;;;;;9.02;1.40;;;;;;;;;;5141228;27;20018;-75
2021/11/08 01:02:38;;;;;;;10.30;1.55;;;;;;;;;;5157044;27;20030;-74
2021/11/08 01:05:05;;;;;;;5.88;1.20;;;;;;;;;;5157112;27;20025;-74
2021/11/08 01:07:31;;;;;;;4.47;1.25;;;;;;;;;;5156967;27;20377;-75
2021/11/08 01:09:59;;;;;;;6.00;1.00;;;;;;;;;;5138557;27;20029;-69
2021/11/08 01:12:25;;;;;;;4.00;1.10;;;;;;;;;;5156844;27;20455;-72
2021/11/08 01:14:53;;;;;;;7.70;1.20;;;;;;;;;;5138934;27;20027;-73
2021/11/08 01:17:20;;;;;;;11.90;1.42;;;;;;;;;;5136852;27;20030;-74
2021/11/08 01:19:46;;;;;;;10.43;1.50;;;;;;;;;;5136010;27;20464;-77
2021/11/08 01:22:17;;;;;;;6.72;1.42;;;;;;;;;;5136176;27;20098;-71
2021/11/08 01:24:51;;;;;;;6.30;1.23;;;;;;;;;;5136399;27;20043;-78
2021/11/08 01:27:17;;;;;;;14.05;1.25;;;;;;;;;;5117538;27;20406;-77
2021/11/08 01:29:43;;;;;;;7.22;1.52;;;;;;;;;;5102920;28;20452;-78
2021/11/08 01:32:10;;;;;;;8.15;1.45;;;;;;;;;;5115280;28;20517;-72
2021/11/08 01:34:37;;;;;;;9.25;1.23;;;;;;;;;;5115072;28;20028;-78
2021/11/08 01:37:04;;;;;;;8.73;1.40;;;;;;;;;;5115804;28;20040;-73
2021/11/08 01:39:36;;;;;;;6.75;1.30;;;;;;;;;;5116017;28;20024;-75
2021/11/08 01:42:07;;;;;;;8.43;1.47;;;;;;;;;;5116064;28;20019;-75
2021/11/08 01:44:34;;;;;;;10.93;1.52;;;;;;;;;;5115595;27;20035;-77
2021/11/08 01:47:01;;;;;;;7.78;1.17;;;;;;;;;;5115852;28;20034;-81
2021/11/08 01:49:28;;;;;;;3.58;0.98;;;;;;;;;;5115372;28;20039;-79
2021/11/08 01:51:54;;;;;;;5.70;1.35;;;;;;;;;;5115703;28;20035;-75
2021/11/08 01:54:20;;;;;;;4.15;0.98;;;;;;;;;;5097258;28;20039;-75
2021/11/08 01:56:47;;;;;;;7.03;1.20;;;;;;;;;;5115146;28;20103;-80
2021/11/08 01:59:13;;;;;;;8.35;1.13;;;;;;;;;;5115382;28;20084;-70
2021/11/08 02:01:40;;;;;;;5.30;1.10;;;;;;;;;;5114920;28;20080;-77
2021/11/08 02:04:07;;;;;;;4.15;0.90;;;;;;;;;;5097238;28;20115;-81
2021/11/08 02:06:33;;;;;;;1.55;0.70;;;;;;;;;;5115223;28;20020;-80
2021/11/08 02:08:59;;;;;;;7.32;1.05;;;;;;;;;;5096722;28;20039;-80
2021/11/08 02:11:25;;;;;;;4.47;1.35;;;;;;;;;;5115383;28;20020;-76
2021/11/08 02:13:53;;;;;;;5.22;1.08;;;;;;;;;;5114671;28;20075;-73
2021/11/08 02:16:20;;;;;;;6.93;1.10;;;;;;;;;;5114632;28;20024;-79
2021/11/08 02:18:46;;;;;;;4.90;1.20;;;;;;;;;;5115755;28;20138;-74
2021/11/08 02:21:13;;;;;;;4.30;1.30;;;;;;;;;;5116020;28;20023;-78
2021/11/08 02:23:40;;;;;;;3.17;0.98;;;;;;;;;;5116330;28;20047;-82
2021/11/08 02:26:10;;;;;;;2.25;0.90;;;;;;;;;;5115902;28;20020;-81
2021/11/08 02:28:37;;;;;;;6.00;1.02;;;;;;;;;;5097017;28;20038;-84
2021/11/08 02:31:05;;;;;;;4.68;1.00;;;;;;;;;;5116050;28;20019;-80
2021/11/08 02:33:31;;;;;;;4.10;1.10;;;;;;;;;;5116863;28;20039;-72
2021/11/08 02:35:57;;;;;;;3.80;1.00;;;;;;;;;;5115833;28;20084;-75
2021/11/08 02:38:27;;;;;;;4.13;1.35;;;;;;;;;;5117143;28;20058;-82
2021/11/08 02:40:58;;;;;;;3.60;0.90;;;;;;;;;;5116609;28;20058;-78
2021/11/08 02:43:25;;;;;;;4.05;1.10;;;;;;;;;;5115107;28;20028;-80
2021/11/08 02:45:57;;;;;;;5.60;1.10;;;;;;;;;;5116723;28;20019;-78
2021/11/08 02:48:24;;;;;;;8.00;1.33;;;;;;;;;;5115348;28;20028;-82
2021/11/08 02:50:56;;;;;;;5.63;1.05;;;;;;;;;;5117834;27;20028;-71
2021/11/08 02:53:24;;;;;;;6.72;1.35;;;;;;;;;;5135306;27;20031;-75
2021/11/08 02:55:50;;;;;;;5.40;1.30;;;;;;;;;;5136042;27;20012;-69
2021/11/08 02:58:17;;;;;;;4.35;1.10;;;;;;;;;;5136291;27;20027;-77
2021/11/08 03:00:43;;;;;;;7.07;1.23;;;;;;;;;;5145310;27;20026;-68
2021/11/08 03:03:09;;;;;;;2.72;1.05;;;;;;;;;;5156847;27;20068;-76
2021/11/08 03:05:37;;;;;;;6.65;1.20;;;;;;;;;;5156870;27;20469;-76
2021/11/08 03:08:04;;;;;;;5.50;1.10;;;;;;;;;;5128621;27;20110;-80
2021/11/08 03:10:33;;;;;;;4.75;1.27;;;;;;;;;;5114931;28;20020;-76
2021/11/08 03:13:06;;;;;;;2.83;1.13;;;;;;;;;;5114497;28;20060;-73
2021/11/08 03:18:12;;;;;;;3.20;1.15;;;;;;;;;;5133800;28;20023;-70
2021/11/08 03:20:38;;;;;;;3.40;1.00;;;;;;;;;;5134103;28;20127;-72
2021/11/08 03:23:07;;;;;;;7.53;1.08;;;;;;;;;;5111623;28;20081;-71
2021/11/08 03:28:00;;;;;;;2.92;1.10;;;;;;;;;;5114435;28;20027;-71
2021/11/08 03:30:34;;;;;;;4.97;0.80;;;;;;;;;;5114044;28;20565;-77
2021/11/08 03:33:00;;;;;;;5.07;1.10;;;;;;;;;;5113990;28;20093;-71
2021/11/08 03:35:28;;;;;;;2.65;0.98;;;;;;;;;;5113882;28;20134;-79
2021/11/08 03:37:55;;;;;;;6.65;1.10;;;;;;;;;;5113686;28;20050;-71
2021/11/08 03:40:26;;;;;;;2.95;0.93;;;;;;;;;;5115819;28;20022;-71
2021/11/08 03:42:54;;;;;;;4.65;0.98;;;;;;;;;;5098788;28;20020;-70
2021/11/08 03:45:20;;;;;;;3.63;0.90;;;;;;;;;;5117276;28;20032;-68
2021/11/08 03:47:46;;;;;;;1.38;0.73;;;;;;;;;;5117200;28;20091;-75
2021/11/08 03:50:12;;;;;;;4.93;0.98;;;;;;;;;;5117043;28;20058;-70
2021/11/08 03:52:39;;;;;;;4.03;0.90;;;;;;;;;;5117039;28;20454;-73
2021/11/08 03:55:10;;;;;;;4.57;1.17;;;;;;;;;;5118344;27;20073;-76
2021/11/08 03:57:37;;;;;;;2.80;0.90;;;;;;;;;;5137638;27;20031;-74
2021/11/08 04:00:07;;;;;;;6.60;1.02;;;;;;;;;;5140965;27;20023;-69
2021/11/08 04:02:33;;;;;;;2.55;0.90;;;;;;;;;;5157774;27;20022;-73
2021/11/08 04:05:01;;;;;;;2.65;0.80;;;;;;;;;;5139516;27;20066;-73
2021/11/08 04:07:27;;;;;;;2.30;1.00;;;;;;;;;;5139387;27;20015;-75
2021/11/08 04:09:53;;;;;;;3.42;0.90;;;;;;;;;;5139421;27;20167;-72
2021/11/08 04:12:19;;;;;;;2.83;1.02;;;;;;;;;;5125921;27;20351;-75
2021/11/08 04:14:46;;;;;;;3.85;0.85;;;;;;;;;;5137029;27;20027;-77
2021/11/08 04:17:14;;;;;;;3.80;0.80;;;;;;;;;;5137291;27;20018;-70
2021/11/08 04:19:41;;;;;;;4.30;1.00;;;;;;;;;;5118493;27;20051;-68
2021/11/08 04:22:08;;;;;;;3.90;1.13;;;;;;;;;;5137033;27;20045;-74
2021/11/08 04:24:34;;;;;;;4.30;1.10;;;;;;;;;;5137073;27;20062;-69
2021/11/08 04:27:01;;;;;;;2.60;0.90;;;;;;;;;;5136235;27;20026;-73
2021/11/08 04:29:27;;;;;;;4.03;1.20;;;;;;;;;;5118686;27;20030;-71
2021/11/08 04:31:53;;;;;;;7.55;0.90;;;;;;;;;;5137394;27;20011;-76
2021/11/08 04:34:24;;;;;;;2.83;0.90;;;;;;;;;;5136834;27;20059;-75
2021/11/08 04:37:17;;;;;;;5.50;0.70;;;;;;;;;;5136842;27;20015;-70
2021/11/08 04:51:06;;;;;;;3.03;0.82;;;;;;;;;;5136348;27;20492;-69
2021/11/08 04:53:24;;;;;;;4.13;0.75;;;;;;;;;;5128510;27;20479;-70
2021/11/08 05:23:08;;;;;;;10.95;1.00;;;;;;;;;;5115538;28;20089;-69
2021/11/08 05:28:38;;;;;;;6.55;0.90;;;;;;;;;;5115792;28;20172;-70
2021/11/08 05:31:04;;;;;;;11.63;1.17;;;;;;;;;;5115588;28;20015;-76
2021/11/08 05:33:30;;;;;;;4.65;0.90;;;;;;;;;;5117501;27;20019;-69
2021/11/08 05:35:56;;;;;;;10.65;1.23;;;;;;;;;;5136790;27;20451;-74
2021/11/08 05:38:22;;;;;;;11.05;1.08;;;;;;;;;;5136177;27;20031;-70
2021/11/08 05:40:48;;;;;;;13.57;1.75;;;;;;;;;;5135433;27;20050;-70
2021/11/08 05:43:14;;;;;;;16.48;1.35;;;;;;;;;;5135560;27;20237;-72
2021/11/08 05:45:41;;;;;;;11.85;1.30;;;;;;;;;;5135313;27;20023;-71
2021/11/08 05:48:08;;;;;;;14.43;1.40;;;;;;;;;;5118992;27;20103;-72
2021/11/08 05:50:36;;;;;;;29.85;1.38;;;;;;;;;;5097353;28;20035;-74
2021/11/08 05:53:02;;;;;;;14.77;1.48;;;;;;;;;;5097323;28;20028;-69
2021/11/08 05:55:36;;;;;;;10.05;1.20;;;;;;;;;;5115689;28;20024;-72
2021/11/08 06:50:04;;;;;;;5.38;1.60;;;;;;;;;;5113371;28;20101;-68
2021/11/08 06:52:30;;;;;;;10.98;1.60;;;;;;;;;;5112957;27;20026;-67
2021/11/08 06:54:59;;;;;;;5.47;1.30;;;;;;;;;;5113535;28;20035;-67
2021/11/08 06:57:31;;;;;;;12.68;1.60;;;;;;;;;;5113335;28;20114;-67
2021/11/08 06:59:57;;;;;;;15.33;1.83;;;;;;;;;;5113292;28;20035;-67
2021/11/08 07:02:25;;;;;;;8.73;1.60;;;;;;;;;;5113088;28;20080;-67
2021/11/08 07:04:51;;;;;;;9.48;2.10;;;;;;;;;;5094724;28;20475;-67
2021/11/08 07:07:17;;;;;;;5.43;1.27;;;;;;;;;;5113135;28;20069;-67
2021/11/08 07:09:43;;;;;;;6.22;1.20;;;;;;;;;;5122483;28;20180;-68
2021/11/08 07:12:10;;;;;;;9.82;1.27;;;;;;;;;;5115310;28;20023;-66
2021/11/08 07:14:36;;;;;;;7.57;1.15;;;;;;;;;;5134545;27;20427;-68
2021/11/08 07:17:02;;;;;;;4.65;1.48;;;;;;;;;;5138218;27;20106;-69
2021/11/08 07:19:28;;;;;;;3.30;1.27;;;;;;;;;;5137584;27;20099;-68
2021/11/08 07:21:54;;;;;;;6.22;1.27;;;;;;;;;;5137740;27;20027;-68
2021/11/08 07:24:20;;;;;;;8.65;1.70;;;;;;;;;;5118415;27;20110;-69
2021/11/08 07:26:47;;;;;;;6.57;1.55;;;;;;;;;;5137843;27;20077;-68
2021/11/08 07:29:15;;;;;;;3.60;1.27;;;;;;;;;;5137730;27;20493;-68
2021/11/08 07:31:41;;;;;;;4.47;1.63;;;;;;;;;;5137586;27;20358;-68
2021/11/08 07:34:08;;;;;;;9.95;1.40;;;;;;;;;;5137526;27;20095;-68
2021/11/08 07:36:34;;;;;;;3.80;1.48;;;;;;;;;;5119112;27;20066;-69
2021/11/08 07:39:00;;;;;;;3.22;1.30;;;;;;;;;;5137489;27;20027;-68
2021/11/08 07:41:26;;;;;;;5.70;1.70;;;;;;;;;;5119057;27;20114;-68
2021/11/08 07:43:52;;;;;;;5.43;1.42;;;;;;;;;;5121561;27;20043;-69
2021/11/08 07:46:19;;;;;;;6.00;1.73;;;;;;;;;;5118927;27;20106;-69
2021/11/08 07:48:46;;;;;;;11.52;1.65;;;;;;;;;;5099489;28;20118;-70
2021/11/08 07:51:13;;;;;;;9.38;1.48;;;;;;;;;;5098884;27;20453;-70
2021/11/08 07:53:40;;;;;;;9.13;1.58;;;;;;;;;;5098246;28;20028;-70
2021/11/08 07:56:07;;;;;;;9.65;1.60;;;;;;;;;;5113095;27;20054;-71
2021/11/08 07:58:34;;;;;;;17.30;1.90;;;;;;;;;;5118866;27;20072;-71
2021/11/08 08:01:00;;;;;;;8.77;1.77;;;;;;;;;;5140395;27;20011;-71
2021/11/08 08:03:26;;;;;;;8.60;1.40;;;;;;;;;;5137358;27;20065;-71
2021/11/08 08:05:53;;;;;;;7.90;1.65;;;;;;;;;;5137329;27;20030;-71
2021/11/08 08:08:19;;;;;;;5.65;1.50;;;;;;;;;;5137419;27;20019;-71
2021/11/08 08:10:49;;;;;;;5.35;1.67;;;;;;;;;;5137263;27;20477;-71
2021/11/08 08:13:16;;;;;;;9.43;1.52;;;;;;;;;;5119054;27;20101;-71
2021/11/08 08:15:42;;;;;;;6.47;1.75;;;;;;;;;;5136579;27;20103;-71
2021/11/08 08:18:11;;;;;;;7.72;1.48;;;;;;;;;;5136945;27;20090;-71
2021/11/08 08:20:37;;;;;;;8.40;1.92;;;;;;;;;;5136492;27;20075;-71
2021/11/08 08:23:03;;;;;;;4.63;1.63;;;;;;;;;;5139057;27;20038;-71
2021/11/08 08:25:29;;;;;;;8.18;1.65;;;;;;;;;;5136040;27;20023;-72
2021/11/08 08:27:58;;;;;;;6.25;1.83;;;;;;;;;;5130545;27;20142;-71
2021/11/08 08:30:25;;;;;;;6.45;1.52;;;;;;;;;;5142479;27;20043;-71
2021/11/08 08:32:51;;;;;;;9.27;2.17;;;;;;;;;;5154816;27;20086;-75
2021/11/08 08:35:17;;;;;;;9.68;1.70;;;;;;;;;;5136689;27;20047;-72
2021/11/08 08:37:44;;;;;;;6.05;1.65;;;;;;;;;;5136681;27;20115;-72
2021/11/08 08:40:10;;;;;;;6.93;1.50;;;;;;;;;;5136585;27;20023;-70
2021/11/08 08:42:36;;;;;;;8.48;1.95;;;;;;;;;;5136224;27;20020;-72
2021/11/08 08:45:03;;;;;;;6.65;1.88;;;;;;;;;;5133718;27;20362;-69
2021/11/08 08:47:29;;;;;;;6.47;1.67;;;;;;;;;;5115720;28;20031;-70
2021/11/08 08:49:55;;;;;;;7.90;1.60;;;;;;;;;;5115632;28;20039;-70
2021/11/08 08:52:21;;;;;;;8.73;1.83;;;;;;;;;;5115717;28;20031;-69
2021/11/08 08:54:47;;;;;;;6.40;1.73;;;;;;;;;;5115610;27;20041;-71
2021/11/08 08:57:13;;;;;;;7.05;1.38;;;;;;;;;;5136174;27;20015;-71
2021/11/08 08:59:40;;;;;;;7.00;1.50;;;;;;;;;;5136518;27;20188;-69
2021/11/08 09:02:08;;;;;;;5.35;1.67;;;;;;;;;;5151251;27;20096;-68
2021/11/08 09:04:34;;;;;;;5.22;1.40;;;;;;;;;;5138007;27;20023;-70
2021/11/08 09:07:00;;;;;;;3.88;1.48;;;;;;;;;;5136046;27;20046;-71
2021/11/08 09:09:26;;;;;;;5.90;1.58;;;;;;;;;;5117230;27;20033;-69
2021/11/08 09:11:52;;;;;;;5.65;1.77;;;;;;;;;;5137628;27;20035;-74
2021/11/08 09:14:18;;;;;;;4.20;1.27;;;;;;;;;;5135683;27;20039;-72
2021/11/08 09:16:44;;;;;;;4.40;1.40;;;;;;;;;;5137576;27;20023;-71
2021/11/08 09:19:10;;;;;;;5.45;1.92;;;;;;;;;;5135454;27;20043;-69
2021/11/08 09:21:36;;;;;;;4.68;1.40;;;;;;;;;;5135910;27;20011;-72
2021/11/08 09:24:03;;;;;;;7.43;1.77;;;;;;;;;;5135596;27;20023;-70
2021/11/08 09:26:31;;;;;;;6.65;1.70;;;;;;;;;;5135615;27;20027;-69
2021/11/08 09:28:57;;;;;;;5.00;1.23;;;;;;;;;;5135432;27;20378;-70
2021/11/08 09:31:24;;;;;;;3.72;1.20;;;;;;;;;;5135433;27;20079;-71
2021/11/08 09:33:50;;;;;;;5.22;1.45;;;;;;;;;;5116744;27;20116;-70
2021/11/08 09:36:16;;;;;;;5.63;1.50;;;;;;;;;;5135245;27;20034;-70
2021/11/08 09:38:53;;;;;;;5.82;1.40;;;;;;;;;;5134137;27;20696;-69
2021/11/08 09:41:21;;;;;;;2.88;1.20;;;;;;;;;;5135471;27;20045;-73
2021/11/08 09:43:48;;;;;;;6.55;1.60;;;;;;;;;;5134869;27;20416;-72
2021/11/08 09:46:15;;;;;;;5.97;1.40;;;;;;;;;;5116705;27;20030;-71
2021/11/08 09:48:41;;;;;;;5.20;1.70;;;;;;;;;;5116577;27;20374;-70
2021/11/08 09:51:12;;;;;;;4.55;1.30;;;;;;;;;;5116872;27;20034;-70
2021/11/08 09:53:39;;;;;;;6.43;1.40;;;;;;;;;;5134985;27;20027;-69
2021/11/08 09:56:06;;;;;;;5.28;1.60;;;;;;;;;;5135139;27;20027;-69
2021/11/08 09:58:33;;;;;;;5.65;1.42;;;;;;;;;;5134903;27;20439;-71
2021/11/08 10:01:00;;;;;;;4.68;1.33;;;;;;;;;;5134803;27;20019;-72
2021/11/08 10:03:27;;;;;;;10.38;1.80;;;;;;;;;;5134725;27;20378;-71
2021/11/08 10:05:55;;;;;;;4.00;1.30;;;;;;;;;;5134715;27;20030;-70
2021/11/08 10:08:23;;;;;;;5.97;1.55;;;;;;;;;;5116430;27;20110;-70
2021/11/08 10:10:50;;;;;;;3.40;1.35;;;;;;;;;;5134686;27;20023;-74
2021/11/08 10:13:20;;;;;;;5.85;1.48;;;;;;;;;;5134591;27;20424;-69
2021/11/08 10:15:49;;;;;;;5.07;1.75;;;;;;;;;;5134669;27;20019;-71
2021/11/08 10:18:16;;;;;;;4.70;1.13;;;;;;;;;;5115743;27;20418;-70
2021/11/08 10:20:47;;;;;;;3.88;1.42;;;;;;;;;;5134973;27;20027;-72
2021/11/08 10:23:15;;;;;;;3.33;1.30;;;;;;;;;;5134670;27;20054;-73
2021/11/08 10:25:42;;;;;;;6.15;1.50;;;;;;;;;;5134465;27;20031;-73
2021/11/08 10:28:15;;;;;;;5.15;1.45;;;;;;;;;;5134242;27;20029;-70
2021/11/08 10:30:41;;;;;;;8.23;1.55;;;;;;;;;;5134438;27;20027;-73
2021/11/08 10:33:10;;;;;;;5.40;1.40;;;;;;;;;;5134030;27;20114;-72
2021/11/08 10:35:37;;;;;;;4.43;1.30;;;;;;;;;;5133606;27;20031;-74
2021/11/08 10:38:07;;;;;;;4.32;1.27;;;;;;;;;;5133853;27;20076;-70
2021/11/08 10:40:44;;;;;;;4.28;1.15;;;;;;;;;;5116151;27;20110;-71
2021/11/08 10:43:11;;;;;;;6.28;1.98;;;;;;;;;;5134334;27;20023;-72
2021/11/08 10:45:47;;;;;;;6.72;1.48;;;;;;;;;;5134306;27;20094;-70
2021/11/08 10:48:18;;;;;;;3.15;1.02;;;;;;;;;;5133793;27;20098;-72
2021/11/08 10:50:44;;;;;;;7.00;1.60;;;;;;;;;;5134431;27;20023;-71
2021/11/08 10:53:10;;;;;;;6.35;1.50;;;;;;;;;;5133752;27;20034;-71
2021/11/08 10:55:36;;;;;;;5.88;1.25;;;;;;;;;;5133896;27;20076;-69
2021/11/08 10:58:15;;;;;;;3.45;1.20;;;;;;;;;;5115754;28;20027;-71
2021/11/08 11:00:52;;;;;;;8.18;1.60;;;;;;;;;;5133864;27;20695;-70
2021/11/08 11:03:19;;;;;;;6.07;1.60;;;;;;;;;;5133857;27;20031;-73
2021/11/08 11:05:46;;;;;;;6.13;1.38;;;;;;;;;;5134264;27;20028;-73
2021/11/08 11:08:15;;;;;;;5.55;1.42;;;;;;;;;;5133663;27;20020;-73
2021/11/08 11:10:51;;;;;;;5.40;1.42;;;;;;;;;;5133900;27;20012;-76
2021/11/08 11:13:19;;;;;;;5.03;1.30;;;;;;;;;;5133632;28;20118;-74
2021/11/08 11:15:45;;;;;;;8.63;1.70;;;;;;;;;;5134094;28;20027;-69
2021/11/08 11:18:13;;;;;;;4.47;1.25;;;;;;;;;;5133442;27;20363;-72
2021/11/08 11:20:43;;;;;;;4.28;1.40;;;;;;;;;;5135485;27;20054;-73
2021/11/08 11:23:20;;;;;;;4.35;1.13;;;;;;;;;;5134392;27;20027;-71
2021/11/08 11:25:51;;;;;;;4.72;1.45;;;;;;;;;;5115575;28;20041;-71
2021/11/08 11:28:22;;;;;;;6.45;1.77;;;;;;;;;;5133778;28;20412;-72
2021/11/08 11:30:48;;;;;;;7.03;1.80;;;;;;;;;;5129527;27;20455;-72
2021/11/08 11:33:18;;;;;;;9.57;1.75;;;;;;;;;;5128093;27;20038;-73
2021/11/08 11:35:48;;;;;;;5.20;1.25;;;;;;;;;;5135348;27;20023;-72
2021/11/08 11:38:16;;;;;;;4.40;1.63;;;;;;;;;;5133686;28;20374;-70
2021/11/08 11:40:44;;;;;;;6.60;1.48;;;;;;;;;;5133539;28;20492;-71
2021/11/08 11:43:12;;;;;;;6.47;1.70;;;;;;;;;;5135243;27;20030;-70
2021/11/08 11:45:45;;;;;;;8.18;1.55;;;;;;;;;;5133700;28;20042;-70
2021/11/08 11:48:11;;;;;;;5.45;1.60;;;;;;;;;;5135284;27;20042;-71
2021/11/08 11:50:38;;;;;;;12.07;2.17;;;;;;;;;;5118148;27;20718;-73
2021/11/08 11:53:06;;;;;;;4.32;1.85;;;;;;;;;;5132529;27;20027;-70
2021/11/08 11:55:33;;;;;;;5.82;1.50;;;;;;;;;;5131756;28;20031;-72
2021/11/08 11:58:01;;;;;;;5.70;2.05;;;;;;;;;;5128272;27;20022;-71
2021/11/08 12:00:28;;;;;;;6.72;1.70;;;;;;;;;;5119548;27;20027;-71
2021/11/08 12:02:55;;;;;;;6.68;1.70;;;;;;;;;;5056813;27;20484;-70
2021/11/08 12:05:21;;;;;;;7.82;1.98;;;;;;;;;;5052978;28;20029;-70
2021/11/08 12:07:51;;;;;;;7.68;1.90;;;;;;;;;;5052394;28;20098;-70
2021/11/08 12:10:17;;;;;;;5.82;1.75;;;;;;;;;;5122258;27;20454;-69
2021/11/08 12:12:43;;;;;;;4.30;1.55;;;;;;;;;;5116609;28;20023;-68
2021/11/08 12:15:09;;;;;;;6.40;1.80;;;;;;;;;;5133421;27;20031;-70
2021/11/08 12:17:43;;;;;;;7.68;1.90;;;;;;;;;;5093897;27;20108;-69
2021/11/08 12:20:15;;;;;;;7.47;1.48;;;;;;;;;;5126868;27;20051;-72
2021/11/08 12:22:41;;;;;;;7.30;1.63;;;;;;;;;;5136954;27;20065;-68
2021/11/08 12:25:09;;;;;;;7.43;1.80;;;;;;;;;;5114358;27;20025;-72
2021/11/08 12:27:35;;;;;;;6.65;1.88;;;;;;;;;;5118671;27;20023;-69
2021/11/08 12:30:07;;;;;;;6.20;1.75;;;;;;;;;;5095075;27;20021;-68
2021/11/08 12:32:41;;;;;;;6.67;1.67;;;;;;;;;;5112489;27;20102;-69
2021/11/08 12:35:13;;;;;;;9.27;1.90;;;;;;;;;;5125582;27;20458;-71
2021/11/08 12:37:39;;;;;;;7.47;2.03;;;;;;;;;;5121186;27;20021;-71
2021/11/08 12:40:06;;;;;;;6.07;1.38;;;;;;;;;;5051982;28;20043;-69
2021/11/08 12:42:43;;;;;;;8.65;1.70;;;;;;;;;;5111292;27;20046;-71
2021/11/08 12:45:11;;;;;;;5.65;1.80;;;;;;;;;;5108457;27;20095;-71
2021/11/08 12:47:37;;;;;;;7.07;1.88;;;;;;;;;;5079827;27;20049;-72
2021/11/08 12:50:04;;;;;;;10.75;2.67;;;;;;;;;;5136373;27;20019;-68
2021/11/08 12:52:31;;;;;;;10.32;2.10;;;;;;;;;;5078171;27;20025;-69
2021/11/08 12:55:11;;;;;;;8.80;1.63;;;;;;;;;;5125038;27;20040;-69
2021/11/08 12:57:38;;;;;;;5.20;1.33;;;;;;;;;;5136413;27;20024;-69
2021/11/08 13:00:23;;;;;;;6.10;1.60;;;;;;;;;;5135876;27;20023;-69
2021/11/08 13:02:54;;;;;;;7.38;1.75;;;;;;;;;;5117839;27;20087;-69
2021/11/08 13:05:28;;;;;;;7.70;2.00;;;;;;;;;;5114925;28;20439;-70
2021/11/08 13:07:55;;;;;;;5.18;1.77;;;;;;;;;;5087197;28;20021;-74
2021/11/08 13:10:25;;;;;;;7.60;1.83;;;;;;;;;;5051590;28;20058;-72
2021/11/08 13:12:52;;;;;;;5.20;1.55;;;;;;;;;;5120569;27;20019;-70
2021/11/08 13:15:19;;;;;;;9.98;2.17;;;;;;;;;;5132028;27;20050;-71
2021/11/08 13:17:46;;;;;;;6.35;1.88;;;;;;;;;;5103904;27;20097;-73
2021/11/08 13:20:13;;;;;;;6.43;1.70;;;;;;;;;;5061210;27;20049;-72
2021/11/08 13:22:44;;;;;;;6.50;1.75;;;;;;;;;;5106646;27;20027;-69
2021/11/08 13:25:28;;;;;;;5.63;1.67;;;;;;;;;;5077531;27;20025;-68
2021/11/08 13:27:56;;;;;;;8.50;2.13;;;;;;;;;;5085373;28;20053;-71
2021/11/08 13:30:26;;;;;;;10.13;1.73;;;;;;;;;;5095236;28;20046;-70
2021/11/08 13:32:52;;;;;;;9.48;1.90;;;;;;;;;;5108420;27;20025;-70
2021/11/08 13:35:26;;;;;;;5.90;1.83;;;;;;;;;;5063326;28;20511;-70
2021/11/08 13:38:01;;;;;;;8.35;1.80;;;;;;;;;;5048983;28;20025;-72
2021/11/08 13:40:28;;;;;;;7.18;1.77;;;;;;;;;;5092512;27;20023;-70
2021/11/08 13:43:04;;;;;;;4.75;1.50;;;;;;;;;;5119293;27;20094;-70
2021/11/08 13:45:30;;;;;;;6.50;1.75;;;;;;;;;;5088039;27;20088;-72
2021/11/08 13:47:56;;;;;;;8.95;1.83;;;;;;;;;;5073937;27;20029;-70
2021/11/08 13:50:22;;;;;;;11.85;2.30;;;;;;;;;;5109262;27;20031;-70
2021/11/08 13:52:54;;;;;;;7.43;1.85;;;;;;;;;;5091586;27;20100;-72
2021/11/08 13:55:21;;;;;;;11.82;2.28;;;;;;;;;;5071874;27;20035;-72
2021/11/08 13:57:47;;;;;;;4.68;1.60;;;;;;;;;;5075650;27;20480;-69
2021/11/08 14:00:15;;;;;;;8.13;1.80;;;;;;;;;;5073522;27;20035;-70
2021/11/08 14:02:41;;;;;;;7.28;1.92;;;;;;;;;;5085454;27;20025;-69
2021/11/08 14:05:08;;;;;;;7.15;1.85;;;;;;;;;;5069860;27;20021;-71
2021/11/08 14:07:34;;;;;;;6.82;1.88;;;;;;;;;;5090247;27;20119;-69
2021/11/08 14:10:00;;;;;;;6.50;1.73;;;;;;;;;;5064645;27;20442;-70
2021/11/08 14:12:29;;;;;;;7.55;1.60;;;;;;;;;;5134671;27;20470;-70
2021/11/08 14:14:56;;;;;;;4.78;1.63;;;;;;;;;;5077291;27;20030;-70
2021/11/08 14:17:24;;;;;;;9.05;1.88;;;;;;;;;;5094592;27;20042;-69
2021/11/08 14:19:54;;;;;;;7.28;2.10;;;;;;;;;;5116526;27;20043;-72
2021/11/08 14:22:27;;;;;;;8.52;1.90;;;;;;;;;;5133862;27;20020;-70
2021/11/08 14:24:56;;;;;;;7.80;2.78;;;;;;;;;;5115195;27;20019;-71
2021/11/08 14:27:24;;;;;;;7.20;1.88;;;;;;;;;;5134001;27;20019;-71
2021/11/08 14:29:50;;;;;;;9.10;1.75;;;;;;;;;;5115507;27;20056;-70
2021/11/08 14:32:21;;;;;;;8.73;1.95;;;;;;;;;;5133713;27;20030;-70
2021/11/08 14:34:54;;;;;;;9.32;2.13;;;;;;;;;;5115314;27;20508;-70
2021/11/08 14:37:26;;;;;;;7.10;2.13;;;;;;;;;;5123160;27;20027;-69
2021/11/08 14:39:52;;;;;;;6.28;1.70;;;;;;;;;;5133784;27;20442;-69
2021/11/08 14:42:19;;;;;;;8.43;1.90;;;;;;;;;;5115559;27;20049;-70
2021/11/08 14:44:46;;;;;;;6.40;1.85;;;;;;;;;;5115050;27;20027;-69
2021/11/08 14:47:20;;;;;;;12.25;2.00;;;;;;;;;;5129067;27;20542;-68
2021/11/08 14:49:58;;;;;;;6.22;1.83;;;;;;;;;;5128514;27;20019;-68
2021/11/08 14:52:32;;;;;;;5.90;1.75;;;;;;;;;;5133760;27;20022;-68
2021/11/08 14:54:58;;;;;;;9.13;1.90;;;;;;;;;;5133567;27;20031;-71
2021/11/08 14:57:24;;;;;;;7.00;1.83;;;;;;;;;;5133693;27;20027;-68
2021/11/08 14:59:56;;;;;;;9.38;2.10;;;;;;;;;;5135429;27;20019;-68
2021/11/08 15:02:26;;;;;;;8.27;1.97;;;;;;;;;;5125236;27;20375;-70
2021/11/08 15:04:57;;;;;;;6.10;1.65;;;;;;;;;;5133567;27;20128;-69
2021/11/08 15:07:29;;;;;;;7.57;2.10;;;;;;;;;;5116727;27;20350;-69
2021/11/08 15:09:56;;;;;;;4.93;1.50;;;;;;;;;;5133042;27;20458;-71
2021/11/08 15:12:26;;;;;;;4.55;1.38;;;;;;;;;;5114741;28;20415;-70
2021/11/08 15:15:03;;;;;;;7.10;1.77;;;;;;;;;;5118779;27;20760;-71
2021/11/08 15:17:41;;;;;;;5.70;2.00;;;;;;;;;;5121948;28;20035;-71
2021/11/08 15:20:07;;;;;;;7.63;1.70;;;;;;;;;;5137032;27;20035;-70
2021/11/08 15:22:33;;;;;;;6.65;1.60;;;;;;;;;;5133108;28;20501;-72
2021/11/08 15:25:10;;;;;;;6.13;1.65;;;;;;;;;;5106669;28;20046;-69
2021/11/08 15:27:36;;;;;;;8.48;1.88;;;;;;;;;;5132712;28;20339;-69
2021/11/08 15:30:06;;;;;;;8.00;2.00;;;;;;;;;;5133001;28;20026;-70
2021/11/08 15:32:32;;;;;;;6.75;1.90;;;;;;;;;;5132820;27;20063;-72
2021/11/08 15:35:09;;;;;;;6.90;1.70;;;;;;;;;;5132561;27;20035;-69
2021/11/08 15:37:35;;;;;;;5.35;1.77;;;;;;;;;;5137505;27;20117;-71
2021/11/08 15:40:01;;;;;;;6.25;1.67;;;;;;;;;;5137232;27;20110;-71
2021/11/08 15:42:27;;;;;;;6.18;1.67;;;;;;;;;;5118935;27;20108;-70
2021/11/08 15:44:53;;;;;;;6.15;1.70;;;;;;;;;;5137600;27;20076;-69
2021/11/08 15:47:21;;;;;;;7.22;1.70;;;;;;;;;;5137500;27;20027;-70
2021/11/08 15:49:47;;;;;;;5.57;1.55;;;;;;;;;;5156353;27;20441;-69
2021/11/08 15:52:13;;;;;;;5.68;1.73;;;;;;;;;;5158256;27;20063;-72
2021/11/08 15:54:39;;;;;;;5.32;1.50;;;;;;;;;;5137433;27;20043;-70
2021/11/08 15:57:05;;;;;;;5.20;1.70;;;;;;;;;;5137825;27;20041;-70
2021/11/08 15:59:31;;;;;;;7.30;1.95;;;;;;;;;;5134728;27;20039;-70
2021/11/08 16:01:57;;;;;;;6.90;2.00;;;;;;;;;;5136912;27;20029;-70
2021/11/08 16:04:23;;;;;;;5.28;1.85;;;;;;;;;;5119584;27;20039;-71
2021/11/08 16:06:52;;;;;;;7.47;2.28;;;;;;;;;;5136702;27;20462;-70
2021/11/08 16:09:18;;;;;;;6.32;1.83;;;;;;;;;;5136874;27;20020;-72
2021/11/08 16:11:44;;;;;;;6.63;2.22;;;;;;;;;;5136820;27;20019;-71
2021/11/08 16:14:12;;;;;;;6.45;2.08;;;;;;;;;;5136618;27;20072;-70
2021/11/08 16:16:39;;;;;;;6.03;1.90;;;;;;;;;;5136437;27;20049;-70
2021/11/08 16:19:05;;;;;;;6.22;1.90;;;;;;;;;;5117639;27;20058;-70
2021/11/08 16:21:31;;;;;;;10.65;2.53;;;;;;;;;;5136948;27;20700;-71
2021/11/08 16:23:58;;;;;;;7.45;1.90;;;;;;;;;;5136376;27;20482;-70
2021/11/08 16:26:24;;;;;;;10.13;2.15;;;;;;;;;;5136207;27;20026;-69
2021/11/08 16:28:50;;;;;;;7.82;2.38;;;;;;;;;;5136457;27;20067;-72